createdAt,value
2023-10-07T00:02:01.685Z,5.30
2023-10-07T00:04:30.560Z,4.90
2023-10-07T00:06:57.902Z,5.67
2023-10-07T00:09:25.373Z,5.57
2023-10-07T00:11:53.067Z,5.40
2023-10-07T00:14:20.585Z,5.20
2023-10-07T00:16:48.110Z,5.27
2023-10-07T00:19:15.599Z,5.10
2023-10-07T00:21:43.271Z,5.10
2023-10-07T00:24:10.771Z,4.93
2023-10-07T00:26:38.399Z,5.37
2023-10-07T00:29:05.889Z,5.90
2023-10-07T00:31:33.346Z,5.40
2023-10-07T00:34:02.096Z,5.20
2023-10-07T00:36:30.521Z,5.63
2023-10-07T00:38:58.216Z,5.93
2023-10-07T00:41:25.575Z,6.63
2023-10-07T00:43:52.912Z,5.53
2023-10-07T00:46:20.954Z,5.37
2023-10-07T00:48:49.282Z,5.73
2023-10-07T00:51:17.446Z,5.83
2023-10-07T00:53:45.723Z,5.57
2023-10-07T00:56:14.875Z,5.60
2023-10-07T00:58:43.714Z,5.57
2023-10-07T01:01:11.382Z,5.03
2023-10-07T01:03:39.003Z,5.60
2023-10-07T01:06:06.739Z,6.37
2023-10-07T01:08:34.233Z,5.97
2023-10-07T01:11:02.875Z,6.17
2023-10-07T01:13:30.689Z,5.50
2023-10-07T01:15:58.716Z,5.60
2023-10-07T01:18:26.169Z,6.33
2023-10-07T01:20:53.580Z,5.70
2023-10-07T01:23:21.700Z,6.03
2023-10-07T01:25:49.222Z,5.87
2023-10-07T01:28:19.168Z,5.37
2023-10-07T01:30:50.623Z,5.90
2023-10-07T01:33:18.175Z,5.97
2023-10-07T01:35:45.510Z,6.10
2023-10-07T01:38:13.025Z,5.83
2023-10-07T01:40:40.578Z,5.50
2023-10-07T01:43:08.021Z,5.87
2023-10-07T01:45:38.264Z,6.87
2023-10-07T01:48:06.501Z,6.10
2023-10-07T01:50:45.762Z,5.53
2023-10-07T01:53:14.052Z,6.60
2023-10-07T01:55:43.244Z,6.70
2023-10-07T01:58:14.538Z,6.00
2023-10-07T02:00:46.901Z,6.50
2023-10-07T02:03:17.207Z,5.83
2023-10-07T02:05:45.726Z,6.47
2023-10-07T02:08:13.626Z,6.40
2023-10-07T02:10:42.442Z,5.50
2023-10-07T02:13:14.109Z,6.90
2023-10-07T02:15:44.592Z,5.87
2023-10-07T02:18:12.879Z,6.47
2023-10-07T02:20:40.334Z,5.87
2023-10-07T02:23:08.033Z,6.67
2023-10-07T02:25:35.495Z,7.97
2023-10-07T02:28:02.845Z,7.50
2023-10-07T02:30:30.277Z,7.53
2023-10-07T02:32:57.653Z,7.20
2023-10-07T02:35:25.195Z,6.67
2023-10-07T02:37:53.401Z,6.60
2023-10-07T02:40:20.860Z,6.93
2023-10-07T02:42:48.383Z,6.47
2023-10-07T02:45:15.855Z,6.73
2023-10-07T02:47:43.288Z,6.93
2023-10-07T02:50:11.073Z,6.43
2023-10-07T02:52:39.062Z,6.47
2023-10-07T02:55:08.683Z,6.40
2023-10-07T02:57:36.559Z,6.13
2023-10-07T03:04:39.612Z,6.13
2023-10-07T03:07:07.739Z,6.57
2023-10-07T03:09:35.503Z,6.40
2023-10-07T03:12:03.240Z,6.50
2023-10-07T03:14:30.945Z,6.50
2023-10-07T03:16:58.695Z,6.40
2023-10-07T03:19:27.034Z,6.80
2023-10-07T03:21:54.975Z,6.43
2023-10-07T03:24:23.939Z,6.73
2023-10-07T03:26:52.070Z,7.30
2023-10-07T03:29:19.808Z,6.70
2023-10-07T03:31:47.697Z,6.27
2023-10-07T03:34:16.586Z,6.93
2023-10-07T03:36:44.373Z,7.10
2023-10-07T03:39:14.001Z,7.33
2023-10-07T03:41:42.440Z,7.00
2023-10-07T03:44:10.413Z,7.23
2023-10-07T03:46:38.945Z,6.60
2023-10-07T03:49:06.717Z,6.80
2023-10-07T03:51:36.795Z,6.93
2023-10-07T03:54:05.133Z,6.43
2023-10-07T03:56:33.067Z,6.70
2023-10-07T03:59:01.016Z,7.50
2023-10-07T04:01:28.789Z,7.00
2023-10-07T04:03:57.536Z,6.83
2023-10-07T04:06:26.743Z,7.50
2023-10-07T04:08:58.795Z,7.80
2023-10-07T04:11:27.748Z,7.57
2023-10-07T04:13:56.953Z,6.27
2023-10-07T04:16:26.107Z,6.83
2023-10-07T04:18:58.755Z,7.20
2023-10-07T04:21:26.871Z,10.43
2023-10-07T04:23:57.235Z,8.13
2023-10-07T04:26:25.936Z,8.13
2023-10-07T04:28:57.329Z,9.00
2023-10-07T04:31:25.643Z,8.10
2023-10-07T04:33:53.596Z,9.23
2023-10-07T04:36:21.596Z,9.00
2023-10-07T04:38:49.760Z,9.27
2023-10-07T04:41:17.759Z,9.43
2023-10-07T04:43:45.659Z,9.90
2023-10-07T04:46:13.559Z,8.03
2023-10-07T04:48:41.320Z,8.73
2023-10-07T04:51:09.069Z,8.27
2023-10-07T04:53:36.755Z,7.53
2023-10-07T04:56:05.352Z,8.47
2023-10-07T04:58:33.889Z,8.63
2023-10-07T05:01:02.025Z,7.53
2023-10-07T05:03:29.888Z,8.50
2023-10-07T05:05:57.568Z,8.37
2023-10-07T05:08:25.797Z,8.20
2023-10-07T05:10:53.847Z,8.37
2023-10-07T05:13:23.030Z,7.90
2023-10-07T05:15:51.246Z,7.83
2023-10-07T05:18:19.174Z,8.43
2023-10-07T05:20:47.298Z,8.50
2023-10-07T05:23:16.015Z,7.70
2023-10-07T05:25:44.127Z,7.63
2023-10-07T05:28:12.493Z,8.53
2023-10-07T05:30:41.551Z,8.33
2023-10-07T05:33:09.385Z,8.97
2023-10-07T05:35:37.506Z,7.93
2023-10-07T05:38:06.206Z,8.80
2023-10-07T05:40:34.120Z,8.57
2023-10-07T05:43:01.816Z,8.87
2023-10-07T05:45:29.510Z,8.50
2023-10-07T05:47:57.397Z,7.80
2023-10-07T05:50:25.587Z,9.17
2023-10-07T05:52:54.557Z,8.00
2023-10-07T05:55:22.338Z,8.07
2023-10-07T05:57:50.054Z,8.00
2023-10-07T06:00:18.106Z,8.27
2023-10-07T06:02:46.052Z,9.70
2023-10-07T06:05:14.012Z,8.90
2023-10-07T06:07:41.807Z,9.00
2023-10-07T06:10:12.583Z,8.97
2023-10-07T06:12:40.250Z,8.53
2023-10-07T06:15:08.791Z,8.53
2023-10-07T06:17:39.307Z,9.40
2023-10-07T06:20:08.253Z,8.93
2023-10-07T06:22:36.297Z,9.77
2023-10-07T06:25:04.099Z,9.83
2023-10-07T06:27:31.966Z,10.13
2023-10-07T06:30:00.550Z,9.77
2023-10-07T06:32:28.292Z,9.90
2023-10-07T06:34:56.185Z,9.27
2023-10-07T06:37:24.406Z,9.17
2023-10-07T06:39:52.510Z,8.87
2023-10-07T06:42:20.403Z,9.00
2023-10-07T06:44:48.200Z,8.83
2023-10-07T06:47:15.943Z,8.83
2023-10-07T06:49:43.721Z,10.00
2023-10-07T06:52:11.485Z,9.43
2023-10-07T06:54:40.246Z,9.10
2023-10-07T06:57:12.648Z,8.60
2023-10-07T06:59:40.542Z,9.27
2023-10-07T07:02:08.393Z,8.97
2023-10-07T07:04:36.270Z,8.73
2023-10-07T07:07:04.181Z,9.03
2023-10-07T07:09:31.951Z,8.30
2023-10-07T07:12:01.660Z,8.47
2023-10-07T07:14:30.009Z,8.63
2023-10-07T07:16:59.111Z,8.20
2023-10-07T07:19:26.859Z,9.07
2023-10-07T07:22:00.701Z,8.63
2023-10-07T07:24:29.768Z,8.77
2023-10-07T07:26:57.495Z,8.97
2023-10-07T07:29:25.304Z,8.47
2023-10-07T07:31:53.231Z,8.60
2023-10-07T07:34:21.491Z,8.20
2023-10-07T07:36:49.556Z,7.53
2023-10-07T07:39:17.299Z,8.23
2023-10-07T07:41:45.040Z,8.10
2023-10-07T07:44:13.441Z,8.40
2023-10-07T07:46:41.761Z,8.00
2023-10-07T07:49:09.562Z,8.37
2023-10-07T07:51:37.830Z,7.70
2023-10-07T07:54:07.073Z,7.83
2023-10-07T07:56:35.847Z,8.17
2023-10-07T07:59:06.668Z,8.63
2023-10-07T08:01:34.463Z,8.57
2023-10-07T08:04:02.369Z,7.97
2023-10-07T08:06:30.827Z,7.57
2023-10-07T08:08:58.776Z,8.20
2023-10-07T08:11:26.535Z,7.70
2023-10-07T08:13:53.971Z,7.90
2023-10-07T08:16:21.654Z,7.93
2023-10-07T08:18:50.111Z,7.93
2023-10-07T08:21:17.849Z,7.50
2023-10-07T08:23:45.665Z,6.53
2023-10-07T08:26:13.118Z,6.87
2023-10-07T08:28:46.953Z,7.20
2023-10-07T08:31:16.079Z,7.03
2023-10-07T08:33:43.817Z,7.30
2023-10-07T08:36:11.515Z,7.50
2023-10-07T08:38:39.338Z,7.30
2023-10-07T08:41:07.013Z,8.07
2023-10-07T08:43:37.533Z,7.47
2023-10-07T08:46:06.332Z,7.27
2023-10-07T08:48:34.730Z,7.50
2023-10-07T08:51:03.416Z,7.20
2023-10-07T08:53:31.520Z,7.30
2023-10-07T08:55:59.076Z,7.23
2023-10-07T08:58:30.632Z,7.40
2023-10-07T09:00:58.664Z,7.30
2023-10-07T09:03:26.947Z,7.23
2023-10-07T09:05:54.514Z,7.60
2023-10-07T09:08:21.951Z,7.03
2023-10-07T09:10:51.918Z,7.53
2023-10-07T09:13:19.315Z,6.50
2023-10-07T09:15:52.227Z,6.60
2023-10-07T09:18:24.660Z,6.40
2023-10-07T09:20:52.712Z,6.20
2023-10-07T09:23:20.493Z,5.83
2023-10-07T09:25:48.828Z,5.93
2023-10-07T09:28:17.656Z,6.10
2023-10-07T09:30:45.228Z,6.37
2023-10-07T09:33:16.184Z,5.57
2023-10-07T09:35:52.045Z,5.07
2023-10-07T09:38:19.425Z,4.93
2023-10-07T09:40:47.418Z,5.10
2023-10-07T09:43:15.231Z,5.37
2023-10-07T09:45:44.617Z,4.73
2023-10-07T09:48:12.133Z,5.00
2023-10-07T09:50:45.972Z,4.80
2023-10-07T09:53:50.888Z,5.20
2023-10-07T09:57:00.894Z,4.57
2023-10-07T10:00:03.854Z,5.37
2023-10-07T10:02:49.791Z,4.60
2023-10-07T10:05:33.928Z,4.50
2023-10-07T10:08:10.124Z,4.53
2023-10-07T10:10:41.124Z,4.83
2023-10-07T10:13:08.616Z,4.83
2023-10-07T10:15:38.461Z,4.27
2023-10-07T10:18:08.486Z,4.40
2023-10-07T10:20:37.759Z,4.30
2023-10-07T10:23:05.212Z,4.40
2023-10-07T10:25:33.041Z,4.97
2023-10-07T10:28:01.229Z,4.43
2023-10-07T10:30:28.846Z,5.30
2023-10-07T10:33:02.047Z,4.30
2023-10-07T10:35:31.255Z,4.80
2023-10-07T10:37:59.159Z,4.27
2023-10-07T10:40:27.059Z,4.60
2023-10-07T10:42:54.816Z,4.03
2023-10-07T10:45:25.145Z,4.13
2023-10-07T10:47:55.047Z,4.53
2023-10-07T10:50:24.980Z,4.60
2023-10-07T10:52:56.818Z,4.50
2023-10-07T10:55:25.148Z,4.70
2023-10-07T10:57:53.754Z,4.38
2023-10-07T11:00:21.881Z,4.90
2023-10-07T11:02:52.666Z,4.78
2023-10-07T11:05:20.966Z,4.25
2023-10-07T11:07:50.506Z,4.60
2023-10-07T11:10:19.955Z,4.70
2023-10-07T11:12:50.021Z,4.25
2023-10-07T11:15:18.016Z,4.88
2023-10-07T11:18:01.879Z,4.45
2023-10-07T11:20:36.047Z,4.93
2023-10-07T11:23:04.101Z,4.97
2023-10-07T11:25:31.509Z,4.82
2023-10-07T11:27:58.904Z,4.32
2023-10-07T11:30:26.695Z,4.68
2023-10-07T11:32:54.459Z,4.60
2023-10-07T11:35:24.366Z,4.30
2023-10-07T11:37:53.633Z,5.20
2023-10-07T11:40:21.188Z,4.68
2023-10-07T11:42:48.739Z,4.60
2023-10-07T11:45:16.314Z,4.28
2023-10-07T11:47:44.858Z,3.80
2023-10-07T11:50:12.252Z,4.40
2023-10-07T11:52:39.733Z,4.85
2023-10-07T11:55:07.366Z,4.60
2023-10-07T11:57:35.535Z,4.63
2023-10-07T12:00:23.285Z,4.38
2023-10-07T12:02:52.068Z,4.63
2023-10-07T12:05:22.291Z,4.68
2023-10-07T12:07:50.912Z,4.35
2023-10-07T12:10:19.079Z,4.55
2023-10-07T12:12:47.643Z,4.28
2023-10-07T12:15:15.316Z,4.32
2023-10-07T12:17:46.534Z,4.47
2023-10-07T12:20:14.294Z,4.40
2023-10-07T12:22:44.313Z,4.38
2023-10-07T12:25:12.347Z,4.10
2023-10-07T12:27:40.962Z,4.30
2023-10-07T12:30:09.671Z,5.35
2023-10-07T12:32:37.119Z,4.20
2023-10-07T12:35:05.545Z,4.32
2023-10-07T12:37:35.474Z,4.40
2023-10-07T12:40:04.043Z,3.75
2023-10-07T12:42:33.126Z,4.22
2023-10-07T12:45:00.900Z,4.05
2023-10-07T12:47:30.866Z,4.40
2023-10-07T12:49:58.692Z,4.07
2023-10-07T12:52:26.179Z,4.68
2023-10-07T12:54:54.300Z,4.30
2023-10-07T12:57:21.679Z,4.53
2023-10-07T12:59:49.409Z,4.20
2023-10-07T13:02:16.803Z,4.03
2023-10-07T13:04:45.280Z,4.15
2023-10-07T13:07:13.229Z,4.13
2023-10-07T13:09:42.625Z,3.97
2023-10-07T13:12:11.518Z,3.92
2023-10-07T13:14:39.518Z,4.13
2023-10-07T13:17:06.923Z,3.53
2023-10-07T13:19:35.201Z,3.95
2023-10-07T13:22:03.557Z,3.55
2023-10-07T13:24:31.188Z,3.63
2023-10-07T13:26:58.508Z,3.70
2023-10-07T13:29:28.701Z,3.67
2023-10-07T13:31:56.093Z,3.42
2023-10-07T13:34:23.665Z,3.65
2023-10-07T13:36:51.032Z,3.97
2023-10-07T13:39:18.366Z,4.30
2023-10-07T13:41:48.527Z,4.13
2023-10-07T13:44:17.981Z,3.22
2023-10-07T13:46:46.983Z,3.55
2023-10-07T13:49:16.666Z,3.42
2023-10-07T13:51:46.439Z,3.63
2023-10-07T13:54:15.236Z,3.63
2023-10-07T13:56:43.202Z,3.58
2023-10-07T13:59:10.980Z,4.00
2023-10-07T14:01:38.802Z,3.70
2023-10-07T14:04:07.026Z,4.10
2023-10-07T14:06:35.082Z,3.90
2023-10-07T14:09:03.110Z,3.90
2023-10-07T14:11:31.040Z,4.18
2023-10-07T14:13:58.807Z,3.90
2023-10-07T14:16:26.620Z,3.50
2023-10-07T14:18:54.714Z,4.28
2023-10-07T14:21:22.625Z,4.38
2023-10-07T14:23:50.463Z,3.70
2023-10-07T14:26:18.258Z,3.72
2023-10-07T14:28:46.494Z,3.53
2023-10-07T14:31:16.888Z,3.80
2023-10-07T14:33:45.358Z,3.58
2023-10-07T14:36:13.302Z,3.70
2023-10-07T14:38:42.636Z,3.85
2023-10-07T14:41:11.225Z,3.63
2023-10-07T14:43:39.259Z,4.15
2023-10-07T14:46:08.126Z,3.75
2023-10-07T14:48:35.975Z,3.60
2023-10-07T14:51:08.042Z,3.95
2023-10-07T14:53:36.055Z,3.78
2023-10-07T14:56:11.620Z,4.07
2023-10-07T14:58:39.326Z,3.47
2023-10-07T15:05:07.851Z,3.78
2023-10-07T15:07:35.592Z,3.75
2023-10-07T15:10:03.421Z,3.33
2023-10-07T15:12:30.961Z,3.80
2023-10-07T15:14:58.301Z,3.72
2023-10-07T15:17:26.049Z,4.03
2023-10-07T15:19:54.254Z,3.97
2023-10-07T15:22:22.131Z,3.78
2023-10-07T15:24:49.797Z,3.53
2023-10-07T15:27:17.754Z,3.90
2023-10-07T15:29:45.845Z,3.83
2023-10-07T15:32:13.616Z,3.22
2023-10-07T15:34:41.591Z,3.55
2023-10-07T15:37:09.629Z,3.92
2023-10-07T15:39:37.981Z,3.45
2023-10-07T15:42:05.441Z,3.40
2023-10-07T15:44:33.027Z,3.40
2023-10-07T15:47:00.969Z,3.70
2023-10-07T15:49:35.900Z,4.57
2023-10-07T15:52:04.352Z,3.92
2023-10-07T15:54:31.715Z,35.00
2023-10-07T15:56:59.256Z,7.22
2023-10-07T15:59:26.706Z,4.47
2023-10-07T16:01:54.207Z,4.10
2023-10-07T16:04:21.867Z,3.83
2023-10-07T16:06:49.348Z,4.00
2023-10-07T16:09:17.116Z,4.40
2023-10-07T16:11:47.746Z,3.85
2023-10-07T16:14:16.226Z,4.25
2023-10-07T16:16:44.088Z,5.90
2023-10-07T16:19:12.038Z,7.07
2023-10-07T16:21:42.119Z,8.65
2023-10-07T16:24:10.093Z,7.20
2023-10-07T16:26:39.024Z,6.70
2023-10-07T16:29:08.884Z,5.93
2023-10-07T16:31:39.710Z,5.97
2023-10-07T16:34:07.300Z,8.17
2023-10-07T16:36:34.854Z,7.53
2023-10-07T16:39:04.298Z,5.43
2023-10-07T16:41:31.871Z,5.03
2023-10-07T16:43:59.713Z,5.90
2023-10-07T16:46:31.087Z,5.27
2023-10-07T16:48:59.197Z,8.70
2023-10-07T16:51:26.890Z,7.97
2023-10-07T16:53:54.421Z,8.20
2023-10-07T16:56:24.524Z,7.72
2023-10-07T16:58:52.533Z,5.85
2023-10-07T17:01:21.684Z,4.78
2023-10-07T17:03:49.517Z,6.13
2023-10-07T17:06:20.157Z,8.87
2023-10-07T17:08:53.460Z,5.28
2023-10-07T17:11:21.549Z,4.67
2023-10-07T17:13:50.058Z,4.63
2023-10-07T17:16:20.920Z,4.60
2023-10-07T17:18:48.285Z,6.17
2023-10-07T17:21:15.790Z,5.80
2023-10-07T17:23:43.293Z,4.77
2023-10-07T17:26:11.086Z,4.22
2023-10-07T17:28:38.581Z,4.77
2023-10-07T17:31:12.290Z,5.70
2023-10-07T17:33:39.951Z,5.60
2023-10-07T17:36:08.735Z,4.90
2023-10-07T17:38:37.633Z,5.50
2023-10-07T17:41:05.177Z,6.43
2023-10-07T17:43:33.044Z,4.80
2023-10-07T17:46:00.874Z,5.20
2023-10-07T17:48:28.516Z,5.77
2023-10-07T17:50:55.984Z,4.53
2023-10-07T17:53:23.527Z,4.80
2023-10-07T17:55:51.916Z,4.90
2023-10-07T17:58:25.257Z,5.20
2023-10-07T18:00:53.247Z,4.87
2023-10-07T18:03:20.914Z,5.40
2023-10-07T18:05:51.138Z,5.00
2023-10-07T18:08:21.252Z,4.77
2023-10-07T18:10:52.096Z,5.23
2023-10-07T18:13:19.650Z,5.93
2023-10-07T18:15:47.113Z,5.93
2023-10-07T18:18:15.224Z,5.50
2023-10-07T18:20:42.602Z,4.50
2023-10-07T18:23:10.211Z,5.10
2023-10-07T18:25:37.678Z,5.30
2023-10-07T18:28:05.325Z,5.20
2023-10-07T18:30:32.791Z,4.47
2023-10-07T18:33:00.705Z,5.77
2023-10-07T18:35:28.138Z,5.40
2023-10-07T18:37:55.567Z,5.20
2023-10-07T18:40:22.949Z,4.70
2023-10-07T18:42:50.408Z,4.80
2023-10-07T18:45:17.971Z,4.97
2023-10-07T18:47:45.393Z,5.10
2023-10-07T18:50:13.130Z,4.40
2023-10-07T18:52:40.901Z,5.27
2023-10-07T18:55:09.272Z,4.90
2023-10-07T18:57:40.569Z,5.10
2023-10-07T19:00:09.688Z,4.83
2023-10-07T19:02:37.217Z,4.50
2023-10-07T19:05:05.331Z,4.57
2023-10-07T19:07:32.729Z,4.93
2023-10-07T19:10:00.158Z,6.60
2023-10-07T19:12:27.758Z,6.33
2023-10-07T19:14:55.146Z,5.97
2023-10-07T19:17:22.591Z,7.50
2023-10-07T19:19:50.120Z,6.53
2023-10-07T19:22:17.590Z,5.55
2023-10-07T19:24:45.009Z,6.03
2023-10-07T19:27:12.409Z,5.23
2023-10-07T19:29:39.973Z,5.97
2023-10-07T19:32:07.452Z,6.00
2023-10-07T19:34:35.050Z,7.43
2023-10-07T19:37:02.328Z,8.27
2023-10-07T19:39:42.424Z,8.70
2023-10-07T19:42:12.335Z,8.67
2023-10-07T19:44:40.010Z,8.37
2023-10-07T19:47:07.687Z,8.10
2023-10-07T19:49:37.828Z,7.47
2023-10-07T19:52:06.025Z,6.77
2023-10-07T19:54:33.756Z,6.63
2023-10-07T19:57:01.141Z,7.63
2023-10-07T19:59:28.519Z,7.33
2023-10-07T20:01:55.967Z,6.13
2023-10-07T20:04:23.573Z,6.20
2023-10-07T20:06:50.941Z,7.07
2023-10-07T20:09:18.261Z,6.97
2023-10-07T20:11:48.277Z,5.07
2023-10-07T20:14:16.103Z,5.53
2023-10-07T20:16:43.667Z,6.90
2023-10-07T20:19:11.478Z,7.33
2023-10-07T20:21:39.082Z,6.63
2023-10-07T20:24:07.152Z,5.63
2023-10-07T20:26:34.742Z,4.83
2023-10-07T20:29:02.228Z,7.07
2023-10-07T20:31:29.722Z,6.27
2023-10-07T20:33:57.642Z,5.37
2023-10-07T20:36:25.290Z,4.73
2023-10-07T20:38:53.512Z,4.60
2023-10-07T20:41:20.983Z,4.57
2023-10-07T20:43:48.337Z,4.03
2023-10-07T20:46:15.933Z,4.20
2023-10-07T20:48:43.406Z,4.27
2023-10-07T20:51:13.401Z,4.23
2023-10-07T20:53:43.666Z,3.93
2023-10-07T20:56:13.369Z,4.07
2023-10-07T20:58:42.182Z,3.90
2023-10-07T21:01:21.701Z,3.60
2023-10-07T21:03:54.381Z,3.93
2023-10-07T21:06:23.025Z,3.63
2023-10-07T21:08:53.296Z,4.27
2023-10-07T21:11:21.265Z,3.77
2023-10-07T21:13:48.915Z,4.27
2023-10-07T21:16:16.692Z,3.90
2023-10-07T21:18:44.146Z,4.00
2023-10-07T21:21:13.428Z,3.43
2023-10-07T21:23:44.969Z,3.63
2023-10-07T21:26:20.863Z,4.27
2023-10-07T21:28:54.541Z,3.73
2023-10-07T21:31:22.057Z,3.60
2023-10-07T21:33:49.631Z,3.70
2023-10-07T21:36:17.329Z,3.60
2023-10-07T21:38:45.199Z,3.53
2023-10-07T21:41:13.237Z,3.60
2023-10-07T21:43:40.753Z,3.87
2023-10-07T21:46:08.389Z,3.70
2023-10-07T21:48:35.689Z,3.70
2023-10-07T21:51:11.079Z,3.50
2023-10-07T21:53:38.830Z,3.30
2023-10-07T21:56:12.482Z,3.60
2023-10-07T21:58:40.015Z,3.90
2023-10-07T22:01:07.585Z,3.60
2023-10-07T22:03:41.281Z,3.57
2023-10-07T22:06:08.713Z,3.57
2023-10-07T22:08:36.240Z,3.73
2023-10-07T22:11:03.734Z,3.27
2023-10-07T22:13:31.255Z,4.03
2023-10-07T22:15:58.875Z,3.70
2023-10-07T22:18:27.673Z,3.30
2023-10-07T22:20:55.436Z,3.07
2023-10-07T22:23:24.255Z,3.60
2023-10-07T22:25:52.826Z,3.43
2023-10-07T22:28:21.643Z,3.10
2023-10-07T22:30:50.934Z,3.70
2023-10-07T22:33:22.562Z,3.50
2023-10-07T22:35:52.020Z,3.60
2023-10-07T22:38:20.089Z,3.50
2023-10-07T22:40:50.323Z,3.60
2023-10-07T22:43:18.876Z,3.30
2023-10-07T22:45:48.254Z,3.77
2023-10-07T22:48:24.825Z,3.37
2023-10-07T22:50:55.607Z,3.37
2023-10-07T22:53:24.192Z,3.50
2023-10-07T22:55:51.589Z,3.30
2023-10-07T22:58:20.113Z,3.33
2023-10-07T23:00:51.958Z,4.07
2023-10-07T23:03:20.232Z,3.63
2023-10-07T23:05:49.179Z,3.80
2023-10-07T23:08:17.679Z,3.37
2023-10-07T23:10:45.118Z,3.63
2023-10-07T23:13:12.517Z,3.37
2023-10-07T23:15:40.603Z,4.00
2023-10-07T23:18:08.238Z,3.47
2023-10-07T23:20:35.976Z,3.80
2023-10-07T23:23:03.396Z,3.13
2023-10-07T23:25:32.145Z,3.63
2023-10-07T23:27:59.483Z,2.97
2023-10-07T23:30:27.076Z,3.47
2023-10-07T23:32:56.815Z,3.60
2023-10-07T23:35:24.592Z,4.13
2023-10-07T23:37:52.967Z,3.13
2023-10-07T23:40:21.476Z,3.00
2023-10-07T23:42:48.796Z,3.13
2023-10-07T23:45:16.631Z,3.20
2023-10-07T23:47:44.094Z,3.67
2023-10-07T23:50:11.844Z,3.20
2023-10-07T23:52:39.229Z,3.43
2023-10-07T23:55:07.170Z,3.20
2023-10-07T23:57:34.541Z,3.50
